createdAt,value
2023-05-10T00:01:13.946Z,0.03
2023-05-10T00:03:11.694Z,0.03
2023-05-10T00:05:11.080Z,0.03
2023-05-10T00:07:11.361Z,0.03
2023-05-10T00:09:10.704Z,0.03
2023-05-10T00:11:10.764Z,0.03
2023-05-10T00:13:11.296Z,0.03
2023-05-10T00:15:10.668Z,0.03
2023-05-10T00:17:11.784Z,0.03
2023-05-10T00:19:10.880Z,0.03
2023-05-10T00:21:11.818Z,0.03
2023-05-10T00:23:10.997Z,0.03
2023-05-10T00:25:10.477Z,0.03
2023-05-10T00:27:11.061Z,0.03
2023-05-10T00:29:10.518Z,0.03
2023-05-10T00:31:11.437Z,0.03
2023-05-10T00:33:11.275Z,0.03
2023-05-10T00:35:10.599Z,0.03
2023-05-10T00:37:11.153Z,0.03
2023-05-10T00:39:10.603Z,0.03
2023-05-10T00:41:11.713Z,0.03
2023-05-10T00:43:11.002Z,0.03
2023-05-10T00:45:10.601Z,0.03
2023-05-10T00:47:11.599Z,0.03
2023-05-10T00:49:10.801Z,0.03
2023-05-10T00:51:11.997Z,0.03
2023-05-10T00:53:11.032Z,0.03
2023-05-10T00:55:10.767Z,0.03
2023-05-10T00:57:11.178Z,0.03
2023-05-10T00:59:10.564Z,0.03
2023-05-10T01:01:14.443Z,0.03
2023-05-10T01:03:11.364Z,0.03
2023-05-10T01:05:11.483Z,0.03
2023-05-10T01:07:10.751Z,0.03
2023-05-10T01:09:10.356Z,0.03
2023-05-10T01:11:11.519Z,0.03
2023-05-10T01:13:11.277Z,0.03
2023-05-10T01:15:10.401Z,0.03
2023-05-10T01:17:11.048Z,0.03
2023-05-10T01:19:10.541Z,0.03
2023-05-10T01:21:11.660Z,0.03
2023-05-10T01:23:10.547Z,0.03
2023-05-10T01:25:11.038Z,0.03
2023-05-10T01:27:10.518Z,0.03
2023-05-10T01:29:11.216Z,0.03
2023-05-10T01:33:10.741Z,0.03
2023-05-10T01:35:11.273Z,0.03
2023-05-10T01:37:10.786Z,0.03
2023-05-10T01:39:10.496Z,0.03
2023-05-10T01:41:11.479Z,0.03
2023-05-10T01:43:10.782Z,0.03
2023-05-10T01:45:11.046Z,0.03
2023-05-10T01:47:11.124Z,0.03
2023-05-10T01:49:10.516Z,0.03
2023-05-10T01:51:11.457Z,0.03
2023-05-10T01:53:10.681Z,0.03
2023-05-10T01:55:10.682Z,0.03
2023-05-10T01:57:11.237Z,0.03
2023-05-10T01:59:11.231Z,0.03
2023-05-10T02:01:11.019Z,0.03
2023-05-10T02:03:11.058Z,0.03
2023-05-10T02:05:11.208Z,0.03
2023-05-10T02:07:10.700Z,0.03
2023-05-10T02:09:11.393Z,0.03
2023-05-10T02:11:11.753Z,0.03
2023-05-10T02:13:10.790Z,0.03
2023-05-10T02:15:11.277Z,0.03
2023-05-10T02:17:11.308Z,0.03
2023-05-10T02:19:10.868Z,0.03
2023-05-10T02:21:11.911Z,0.03
2023-05-10T02:23:11.030Z,0.03
2023-05-10T02:25:10.429Z,0.03
2023-05-10T02:27:11.272Z,0.03
2023-05-10T02:29:10.985Z,0.03
2023-05-10T02:31:11.393Z,0.03
2023-05-10T02:33:11.731Z,0.03
2023-05-10T02:35:10.605Z,0.03
2023-05-10T02:37:11.180Z,0.03
2023-05-10T02:39:10.875Z,0.03
2023-05-10T02:41:13.924Z,0.03
2023-05-10T02:43:11.274Z,0.03
2023-05-10T02:45:10.957Z,0.03
2023-05-10T02:47:11.195Z,0.03
2023-05-10T02:49:10.604Z,0.03
2023-05-10T02:51:11.444Z,0.03
2023-05-10T02:53:10.816Z,0.03
2023-05-10T02:55:10.588Z,0.03
2023-05-10T02:57:11.161Z,0.03
2023-05-10T02:59:10.644Z,0.03
2023-05-10T03:01:16.981Z,0.03
2023-05-10T03:03:11.057Z,0.03
2023-05-10T03:05:11.134Z,0.03
2023-05-10T03:07:10.552Z,0.03
2023-05-10T03:09:11.062Z,0.03
2023-05-10T03:11:10.671Z,0.03
2023-05-10T03:13:10.410Z,0.03
2023-05-10T03:15:10.899Z,0.03
2023-05-10T03:17:11.093Z,0.03
2023-05-10T03:19:11.064Z,0.03
2023-05-10T03:21:10.577Z,0.03
2023-05-10T03:23:11.178Z,0.03
2023-05-10T03:25:10.567Z,0.03
2023-05-10T03:27:10.997Z,0.03
2023-05-10T03:29:10.476Z,0.03
2023-05-10T03:31:11.374Z,0.03
2023-05-10T03:33:10.999Z,0.03
2023-05-10T03:35:11.181Z,0.03
2023-05-10T03:37:10.850Z,0.03
2023-05-10T03:39:11.235Z,0.03
2023-05-10T03:41:11.081Z,0.03
2023-05-10T03:43:10.701Z,0.03
2023-05-10T03:45:11.302Z,0.03
2023-05-10T03:47:11.411Z,0.03
2023-05-10T03:49:11.497Z,0.03
2023-05-10T03:51:11.749Z,0.03
2023-05-10T03:53:10.794Z,0.03
2023-05-10T03:55:11.317Z,0.03
2023-05-10T03:57:10.972Z,0.03
2023-05-10T03:59:10.601Z,0.03
2023-05-10T04:01:15.302Z,0.03
2023-05-10T04:03:11.392Z,0.03
2023-05-10T04:05:10.709Z,0.03
2023-05-10T04:07:11.362Z,0.03
2023-05-10T04:09:10.603Z,0.03
2023-05-10T04:11:11.278Z,0.03
2023-05-10T04:13:10.746Z,0.03
2023-05-10T04:15:11.057Z,0.03
2023-05-10T04:17:10.851Z,0.03
2023-05-10T04:19:11.245Z,0.03
2023-05-10T04:21:10.928Z,0.03
2023-05-10T04:23:10.343Z,0.03
2023-05-10T04:25:11.003Z,0.03
2023-05-10T04:27:10.625Z,0.03
2023-05-10T04:29:11.241Z,0.03
2023-05-10T04:31:11.067Z,0.03
2023-05-10T04:33:11.361Z,0.03
2023-05-10T04:35:10.930Z,0.03
2023-05-10T04:37:10.568Z,0.03
2023-05-10T04:39:11.294Z,0.03
2023-05-10T04:41:11.486Z,0.03
2023-05-10T04:43:10.520Z,0.03
2023-05-10T04:45:11.098Z,0.03
2023-05-10T04:47:12.712Z,0.03
2023-05-10T04:49:10.759Z,0.03
2023-05-10T04:51:11.307Z,0.03
2023-05-10T04:53:10.935Z,0.03
2023-05-10T04:55:15.708Z,0.03
2023-05-10T04:57:10.913Z,0.03
2023-05-10T04:59:11.384Z,0.03
2023-05-10T05:01:14.888Z,0.03
2023-05-10T05:03:11.267Z,0.03
2023-05-10T05:05:11.508Z,0.03
2023-05-10T05:07:11.073Z,0.03
2023-05-10T05:09:10.699Z,0.03
2023-05-10T05:11:11.364Z,0.03
2023-05-10T05:13:11.219Z,0.03
2023-05-10T05:15:11.783Z,0.03
2023-05-10T05:17:11.973Z,0.03
2023-05-10T05:19:11.785Z,0.03
2023-05-10T05:21:11.430Z,0.03
2023-05-10T05:23:10.732Z,0.03
2023-05-10T05:25:11.237Z,0.03
2023-05-10T05:27:11.017Z,0.03
2023-05-10T05:29:10.395Z,0.03
2023-05-10T05:31:11.437Z,0.03
2023-05-10T05:33:11.320Z,0.03
2023-05-10T05:35:11.422Z,0.03
2023-05-10T05:37:12.117Z,0.03
2023-05-10T05:39:10.637Z,0.03
2023-05-10T05:41:10.481Z,0.03
2023-05-10T05:43:11.099Z,0.03
2023-05-10T05:45:10.654Z,0.03
2023-05-10T05:47:10.738Z,0.03
2023-05-10T05:49:11.241Z,0.03
2023-05-10T05:51:10.634Z,0.03
2023-05-10T05:53:11.286Z,0.03
2023-05-10T05:55:10.764Z,0.03
2023-05-10T05:57:13.128Z,0.03
2023-05-10T05:59:10.801Z,0.03
2023-05-10T06:01:17.613Z,0.03
2023-05-10T06:03:11.696Z,0.03
2023-05-10T06:05:11.528Z,0.03
2023-05-10T06:07:10.885Z,0.03
2023-05-10T06:09:11.056Z,0.03
2023-05-10T06:11:10.999Z,0.03
2023-05-10T06:13:10.581Z,0.03
2023-05-10T06:15:10.893Z,0.03
2023-05-10T06:17:10.816Z,0.03
2023-05-10T06:19:11.263Z,0.03
2023-05-10T06:21:11.085Z,0.03
2023-05-10T06:23:11.523Z,0.03
2023-05-10T06:25:10.830Z,0.03
2023-05-10T06:27:10.487Z,0.03
2023-05-10T06:29:10.840Z,0.03
2023-05-10T06:33:11.504Z,0.03
2023-05-10T06:35:10.707Z,0.03
2023-05-10T06:37:10.501Z,0.03
2023-05-10T06:39:11.027Z,0.03
2023-05-10T06:41:11.065Z,0.03
2023-05-10T06:43:10.284Z,0.03
2023-05-10T06:45:10.750Z,0.03
2023-05-10T06:47:10.808Z,0.03
2023-05-10T06:49:11.303Z,0.03
2023-05-10T06:51:11.075Z,0.03
2023-05-10T06:53:10.428Z,0.03
2023-05-10T06:55:10.902Z,0.03
2023-05-10T06:57:23.253Z,0.03
2023-05-10T06:59:11.222Z,0.03
2023-05-10T07:01:15.579Z,0.03
2023-05-10T07:03:11.168Z,0.24
2023-05-10T07:05:14.503Z,0.24
2023-05-10T07:07:19.851Z,0.24
2023-05-10T07:09:10.743Z,0.06
2023-05-10T07:11:11.387Z,0.06
2023-05-10T07:13:14.916Z,0.06
2023-05-10T07:15:10.223Z,0.02
2023-05-10T07:17:11.405Z,0.02
2023-05-10T07:19:11.036Z,0.02
2023-05-10T07:21:11.272Z,0.01
2023-05-10T07:23:10.404Z,0.01
2023-05-10T07:25:11.040Z,0.01
2023-05-10T07:27:10.691Z,0.93
2023-05-10T07:29:11.250Z,0.93
2023-05-10T07:31:11.275Z,0.93
2023-05-10T07:33:11.267Z,0.77
2023-05-10T07:35:11.129Z,0.77
2023-05-10T07:37:10.718Z,0.77
2023-05-10T07:39:18.716Z,0.01
2023-05-10T07:41:10.840Z,0.01
2023-05-10T07:43:10.516Z,0.01
2023-05-10T07:45:10.944Z,0.61
2023-05-10T07:47:11.655Z,0.61
2023-05-10T07:49:11.005Z,0.61
2023-05-10T07:51:10.771Z,0.01
2023-05-10T07:53:11.347Z,0.01
2023-05-10T07:55:10.709Z,0.01
2023-05-10T07:57:11.408Z,0.01
2023-05-10T07:59:12.821Z,0.01
2023-05-10T08:01:14.608Z,0.01
2023-05-10T08:03:11.978Z,0.01
2023-05-10T08:05:11.331Z,0.01
2023-05-10T08:07:11.374Z,0.01
2023-05-10T08:09:10.960Z,0.01
2023-05-10T08:11:10.538Z,0.01
2023-05-10T08:13:11.190Z,0.01
2023-05-10T08:15:10.999Z,0.49
2023-05-10T08:17:10.908Z,0.49
2023-05-10T08:19:11.788Z,0.49
2023-05-10T08:21:10.878Z,0.47
2023-05-10T08:23:13.551Z,0.47
2023-05-10T08:25:11.138Z,0.47
2023-05-10T08:27:10.561Z,0
2023-05-10T08:29:11.137Z,0
2023-05-10T08:31:10.664Z,0
2023-05-10T08:33:11.575Z,0
2023-05-10T08:35:11.435Z,0
2023-05-10T08:37:10.587Z,0
2023-05-10T08:39:22.964Z,0.42
2023-05-10T08:41:10.857Z,0.42
2023-05-10T08:43:10.473Z,0.42
2023-05-10T08:45:12.741Z,0
2023-05-10T08:47:11.084Z,0
2023-05-10T08:49:11.285Z,0
2023-05-10T08:51:10.807Z,0
2023-05-10T08:53:11.243Z,0
2023-05-10T08:55:10.774Z,0
2023-05-10T08:57:12.851Z,0.01
2023-05-10T08:59:10.997Z,0.01
2023-05-10T09:01:14.521Z,0.01
2023-05-10T09:03:11.412Z,0.5
2023-05-10T09:05:11.684Z,0.5
2023-05-10T09:07:11.214Z,0.5
2023-05-10T09:09:10.889Z,0
2023-05-10T09:11:10.574Z,0
2023-05-10T09:13:11.278Z,0
2023-05-10T09:15:10.914Z,0
2023-05-10T09:17:30.248Z,0
2023-05-10T09:19:14.369Z,0
2023-05-10T09:21:11.204Z,0.34
2023-05-10T09:23:10.734Z,0.34
2023-05-10T09:25:10.950Z,0.34
2023-05-10T09:27:10.588Z,0
2023-05-10T09:29:11.260Z,0
2023-05-10T09:31:11.325Z,0
2023-05-10T09:33:11.782Z,0
2023-05-10T09:35:10.985Z,0
2023-05-10T09:37:10.464Z,0
2023-05-10T09:39:10.989Z,0
2023-05-10T09:41:10.710Z,0
2023-05-10T09:43:11.092Z,0
2023-05-10T09:45:10.582Z,0.48
2023-05-10T09:47:11.414Z,0.48
2023-05-10T09:49:10.943Z,0.48
2023-05-10T09:51:10.697Z,0
2023-05-10T09:53:11.110Z,0
2023-05-10T09:55:10.772Z,0
2023-05-10T09:57:11.115Z,0
2023-05-10T09:59:11.078Z,0
2023-05-10T10:01:13.656Z,0
2023-05-10T10:03:10.795Z,0
2023-05-10T10:05:11.660Z,0
2023-05-10T10:07:27.430Z,0
2023-05-10T10:09:11.044Z,0.42
2023-05-10T10:11:11.322Z,0.42
2023-05-10T10:13:10.944Z,0.42
2023-05-10T10:15:10.607Z,0
2023-05-10T10:17:30.955Z,0
2023-05-10T10:19:11.041Z,0
2023-05-10T10:21:12.178Z,0.33
2023-05-10T10:23:10.737Z,0.33
2023-05-10T10:25:10.228Z,0.33
2023-05-10T10:27:11.114Z,0
2023-05-10T10:29:13.460Z,0
2023-05-10T10:31:11.337Z,0
2023-05-10T10:33:24.213Z,0.27
2023-05-10T10:35:10.659Z,0.27
2023-05-10T10:37:11.082Z,0.27
2023-05-10T10:39:10.666Z,0.28
2023-05-10T10:41:11.895Z,0.28
2023-05-10T10:43:10.896Z,0.28
2023-05-10T10:45:10.625Z,0
2023-05-10T10:47:11.579Z,0
2023-05-10T10:49:10.992Z,0
2023-05-10T10:51:12.313Z,0
2023-05-10T10:53:11.162Z,0
2023-05-10T10:55:10.768Z,0
2023-05-10T10:57:11.690Z,0
2023-05-10T10:59:10.971Z,0
2023-05-10T11:01:13.982Z,0
2023-05-10T11:03:11.482Z,0
2023-05-10T11:05:11.856Z,0
2023-05-10T11:07:11.097Z,0
2023-05-10T11:09:12.797Z,0
2023-05-10T11:11:10.890Z,0
2023-05-10T11:13:11.468Z,0
2023-05-10T11:15:11.322Z,0
2023-05-10T11:17:11.479Z,0
2023-05-10T11:19:13.535Z,0
2023-05-10T11:21:11.560Z,0
2023-05-10T11:23:11.712Z,0
2023-05-10T11:25:13.207Z,0
2023-05-10T11:27:10.392Z,0
2023-05-10T11:29:11.122Z,0
2023-05-10T11:31:14.493Z,0
2023-05-10T11:33:10.809Z,0
2023-05-10T11:35:11.017Z,0
2023-05-10T11:37:10.719Z,0
2023-05-10T11:39:10.450Z,0
2023-05-10T11:41:11.447Z,0
2023-05-10T11:43:11.087Z,0
2023-05-10T11:45:10.541Z,0
2023-05-10T11:47:11.589Z,0
2023-05-10T11:49:11.128Z,0
2023-05-10T11:51:11.068Z,3.94
2023-05-10T11:53:11.265Z,3.94
2023-05-10T11:55:10.841Z,3.94
2023-05-10T11:57:10.920Z,0.01
2023-05-10T11:59:11.379Z,0.01
2023-05-10T12:01:14.799Z,0.01
2023-05-10T12:03:11.671Z,0.73
2023-05-10T12:05:11.703Z,0.73
2023-05-10T12:07:10.937Z,0.73
2023-05-10T12:09:10.632Z,0.01
2023-05-10T12:11:11.351Z,0.01
2023-05-10T12:13:10.690Z,0.01
2023-05-10T12:15:11.202Z,0
2023-05-10T12:17:11.033Z,0
2023-05-10T12:19:11.929Z,0
2023-05-10T12:21:11.316Z,0.38
2023-05-10T12:23:12.290Z,0.38
2023-05-10T12:25:11.179Z,0.38
2023-05-10T12:28:15.548Z,0
2023-05-10T12:29:10.643Z,0
2023-05-10T12:31:11.191Z,0
2023-05-10T12:33:11.228Z,0
2023-05-10T12:35:11.268Z,0
2023-05-10T12:37:10.611Z,0
2023-05-10T12:39:10.429Z,0
2023-05-10T12:41:11.606Z,0
2023-05-10T12:43:10.939Z,0
2023-05-10T12:45:10.288Z,0.39
2023-05-10T12:47:11.331Z,0.39
2023-05-10T12:49:20.806Z,0.39
2023-05-10T12:51:10.745Z,0
2023-05-10T12:53:11.188Z,0
2023-05-10T12:55:10.712Z,0
2023-05-10T12:57:10.510Z,0
2023-05-10T12:59:25.058Z,0
2023-05-10T13:01:17.337Z,0
2023-05-10T13:03:11.370Z,0
2023-05-10T13:05:14.096Z,0
2023-05-10T13:07:11.546Z,0
2023-05-10T13:09:10.794Z,0
2023-05-10T13:11:11.329Z,0
2023-05-10T13:13:10.875Z,0
2023-05-10T13:15:10.650Z,0.31
2023-05-10T13:17:11.483Z,0.31
2023-05-10T13:19:11.673Z,0.31
2023-05-10T13:21:11.605Z,0
2023-05-10T13:23:26.894Z,0
2023-05-10T13:25:10.225Z,0
2023-05-10T13:27:10.871Z,0
2023-05-10T13:29:10.383Z,0
2023-05-10T13:31:11.250Z,0
2023-05-10T13:33:10.859Z,0
2023-05-10T13:35:11.202Z,0
2023-05-10T13:37:10.627Z,0
2023-05-10T13:39:11.417Z,0.39
2023-05-10T13:41:10.887Z,0.39
2023-05-10T13:43:10.580Z,0.39
2023-05-10T13:45:11.232Z,0
2023-05-10T13:47:11.001Z,0
2023-05-10T13:49:13.682Z,0
2023-05-10T13:51:11.152Z,0.38
2023-05-10T13:53:10.490Z,0.38
2023-05-10T13:55:11.214Z,0.38
2023-05-10T13:57:10.530Z,0
2023-05-10T13:59:10.696Z,0
2023-05-10T14:01:14.367Z,0
2023-05-10T14:03:11.550Z,0.41
2023-05-10T14:05:11.171Z,0.41
2023-05-10T14:07:11.204Z,0.41
2023-05-10T14:09:10.982Z,0.42
2023-05-10T14:11:11.538Z,0.42
2023-05-10T14:13:11.097Z,0.42
2023-05-10T14:15:10.512Z,0.41
2023-05-10T14:17:12.546Z,0.41
2023-05-10T14:19:11.054Z,0.41
2023-05-10T14:21:10.455Z,0
2023-05-10T14:23:12.020Z,0
2023-05-10T14:25:10.733Z,0
2023-05-10T14:27:11.170Z,0
2023-05-10T14:29:12.669Z,0
2023-05-10T14:31:11.338Z,0
2023-05-10T14:33:11.299Z,0
2023-05-10T14:35:14.484Z,0
2023-05-10T14:37:11.070Z,0
2023-05-10T14:39:10.586Z,0
2023-05-10T14:41:11.989Z,0
2023-05-10T14:43:10.658Z,0
2023-05-10T14:45:11.241Z,0
2023-05-10T14:47:12.232Z,0
2023-05-10T14:49:10.553Z,0
2023-05-10T14:51:32.435Z,0
2023-05-10T14:53:10.406Z,0
2023-05-10T14:55:11.098Z,0
2023-05-10T14:57:10.576Z,0
2023-05-10T14:59:11.698Z,0
2023-05-10T15:01:16.453Z,0
2023-05-10T15:03:14.523Z,0
2023-05-10T15:05:12.810Z,0
2023-05-10T15:07:10.474Z,0
2023-05-10T15:09:11.114Z,0
2023-05-10T15:11:10.722Z,0
2023-05-10T15:13:11.028Z,0
2023-05-10T15:15:10.622Z,0
2023-05-10T15:17:11.689Z,0
2023-05-10T15:19:11.150Z,0
2023-05-10T15:21:10.762Z,0.41
2023-05-10T15:23:11.050Z,0.41
2023-05-10T15:25:10.466Z,0.41
2023-05-10T15:27:10.322Z,0
2023-05-10T15:29:10.954Z,0
2023-05-10T15:31:11.573Z,0
2023-05-10T15:33:11.295Z,0
2023-05-10T15:35:11.784Z,0
2023-05-10T15:37:11.101Z,0
2023-05-10T15:39:10.872Z,0
2023-05-10T15:41:10.514Z,0
2023-05-10T15:43:10.687Z,0
2023-05-10T15:45:11.253Z,0.44
2023-05-10T15:47:10.965Z,0.44
2023-05-10T15:49:11.406Z,0.44
2023-05-10T15:51:11.065Z,0
2023-05-10T15:53:10.594Z,0
2023-05-10T15:55:17.358Z,0
2023-05-10T15:57:10.441Z,0
2023-05-10T15:59:10.944Z,0
2023-05-10T16:01:13.884Z,0
2023-05-10T16:03:11.547Z,0
2023-05-10T16:05:10.484Z,0
2023-05-10T16:07:10.997Z,0
2023-05-10T16:09:10.600Z,0
2023-05-10T16:11:11.432Z,0
2023-05-10T16:13:10.947Z,0
2023-05-10T16:15:10.890Z,0
2023-05-10T16:17:11.939Z,0
2023-05-10T16:20:15.941Z,0
2023-05-10T16:21:11.204Z,0
2023-05-10T16:23:10.889Z,0
2023-05-10T16:25:13.329Z,0
2023-05-10T16:27:10.887Z,0
2023-05-10T16:29:11.238Z,0
2023-05-10T16:31:11.574Z,0
2023-05-10T16:33:10.972Z,0
2023-05-10T16:35:11.319Z,0
2023-05-10T16:37:10.648Z,0
2023-05-10T16:39:10.743Z,0
2023-05-10T16:41:11.508Z,0
2023-05-10T16:43:10.747Z,0
2023-05-10T16:45:12.051Z,0
2023-05-10T16:47:11.149Z,0
2023-05-10T16:49:10.623Z,0
2023-05-10T16:51:11.127Z,0
2023-05-10T16:53:10.486Z,0
2023-05-10T16:55:11.142Z,0
2023-05-10T16:57:10.708Z,0.34
2023-05-10T16:59:11.169Z,0.34
2023-05-10T17:01:14.204Z,0.34
2023-05-10T17:03:11.681Z,0
2023-05-10T17:05:11.119Z,0
2023-05-10T17:07:10.643Z,0
2023-05-10T17:09:11.207Z,0
2023-05-10T17:11:11.146Z,0
2023-05-10T17:13:10.760Z,0
2023-05-10T17:15:10.897Z,0
2023-05-10T17:17:11.612Z,0
2023-05-10T17:19:11.777Z,0
2023-05-10T17:21:11.390Z,0
2023-05-10T17:23:10.368Z,0
2023-05-10T17:25:10.696Z,0
2023-05-10T17:27:11.310Z,0
2023-05-10T17:29:10.866Z,0
2023-05-10T17:31:10.700Z,0
2023-05-10T17:33:11.586Z,0
2023-05-10T17:35:14.562Z,0
2023-05-10T17:37:10.591Z,0
2023-05-10T17:39:11.061Z,0
2023-05-10T17:41:11.102Z,0
2023-05-10T17:43:10.453Z,0
2023-05-10T17:45:11.226Z,0
2023-05-10T17:47:11.319Z,0
2023-05-10T17:49:11.306Z,0
2023-05-10T17:51:10.865Z,0
2023-05-10T17:53:10.477Z,0
2023-05-10T17:55:10.997Z,0
2023-05-10T17:57:10.686Z,0
2023-05-10T17:59:11.077Z,0
2023-05-10T18:01:15.038Z,0
2023-05-10T18:03:10.683Z,0
2023-05-10T18:05:12.213Z,0
2023-05-10T18:07:11.170Z,0
2023-05-10T18:09:11.138Z,0
2023-05-10T18:11:13.247Z,0
2023-05-10T18:13:10.846Z,0
2023-05-10T18:15:26.555Z,0
2023-05-10T18:17:11.123Z,0
2023-05-10T18:19:11.624Z,0
2023-05-10T18:21:11.057Z,0
2023-05-10T18:23:10.771Z,0
2023-05-10T18:25:24.866Z,0
2023-05-10T18:27:11.046Z,0
2023-05-10T18:29:13.227Z,0
2023-05-10T18:31:11.333Z,0
2023-05-10T18:33:10.944Z,0
2023-05-10T18:35:11.244Z,0
2023-05-10T18:37:10.633Z,0
2023-05-10T18:39:10.975Z,0
2023-05-10T18:41:10.959Z,0
2023-05-10T18:43:11.250Z,0
2023-05-10T18:45:11.051Z,0
2023-05-10T18:47:10.621Z,0
2023-05-10T18:49:10.942Z,0
2023-05-10T18:51:10.881Z,0
2023-05-10T18:53:11.116Z,0
2023-05-10T18:55:10.906Z,0
2023-05-10T18:57:11.249Z,0
2023-05-10T18:59:11.238Z,0
2023-05-10T19:01:14.502Z,0
2023-05-10T19:03:11.665Z,0
2023-05-10T19:05:11.201Z,0
2023-05-10T19:07:11.162Z,0
2023-05-10T19:09:10.533Z,0
2023-05-10T19:11:11.365Z,0
2023-05-10T19:13:10.719Z,0
2023-05-10T19:15:11.225Z,0
2023-05-10T19:17:12.444Z,0
2023-05-10T19:19:14.615Z,0
2023-05-10T19:21:13.882Z,0
2023-05-10T19:23:33.482Z,0
2023-05-10T19:25:11.616Z,0
2023-05-10T19:27:11.771Z,0
2023-05-10T19:29:11.228Z,0
2023-05-10T19:31:10.990Z,0
2023-05-10T19:33:10.906Z,0
2023-05-10T19:35:10.969Z,0
2023-05-10T19:37:10.337Z,0
2023-05-10T19:39:10.973Z,0
2023-05-10T19:41:11.568Z,0
2023-05-10T19:43:11.052Z,0
2023-05-10T19:45:10.759Z,0
2023-05-10T19:47:11.316Z,0
2023-05-10T19:49:11.930Z,0
2023-05-10T19:51:12.425Z,0
2023-05-10T19:53:10.929Z,0
2023-05-10T19:55:11.028Z,0
2023-05-10T19:57:12.103Z,0
2023-05-10T19:59:11.234Z,0
2023-05-10T20:01:14.758Z,0
2023-05-10T20:03:10.778Z,0
2023-05-10T20:05:11.384Z,0
2023-05-10T20:07:10.756Z,0
2023-05-10T20:09:11.332Z,0
2023-05-10T20:11:13.104Z,0
2023-05-10T20:13:10.637Z,0
2023-05-10T20:15:11.100Z,0
2023-05-10T20:17:13.268Z,0
2023-05-10T20:19:11.477Z,0
2023-05-10T20:21:10.591Z,0
2023-05-10T20:23:11.096Z,0
2023-05-10T20:25:10.780Z,0
2023-05-10T20:27:11.295Z,0
2023-05-10T20:29:10.974Z,0
2023-05-10T20:31:10.932Z,0
2023-05-10T20:33:11.306Z,0
2023-05-10T20:35:11.061Z,0
2023-05-10T20:37:10.628Z,0
2023-05-10T20:39:10.965Z,0
2023-05-10T20:41:10.941Z,0
2023-05-10T20:43:10.976Z,0
2023-05-10T20:45:10.420Z,0
2023-05-10T20:47:11.279Z,0
2023-05-10T20:49:10.638Z,0
2023-05-10T20:51:11.343Z,0
2023-05-10T20:53:10.880Z,0
2023-05-10T20:55:11.199Z,0
2023-05-10T20:57:10.915Z,0
2023-05-10T20:59:13.687Z,0
2023-05-10T21:01:17.667Z,0
2023-05-10T21:03:11.528Z,0
2023-05-10T21:05:10.995Z,0
2023-05-10T21:07:11.479Z,0
2023-05-10T21:09:10.912Z,0
2023-05-10T21:11:10.688Z,0
2023-05-10T21:13:11.265Z,0
2023-05-10T21:15:10.818Z,0
2023-05-10T21:17:11.476Z,0
2023-05-10T21:19:11.305Z,0
2023-05-10T21:21:11.445Z,0
2023-05-10T21:23:11.155Z,0
2023-05-10T21:25:10.609Z,0
2023-05-10T21:27:10.855Z,0
2023-05-10T21:29:13.222Z,0
2023-05-10T21:31:11.220Z,0
2023-05-10T21:33:11.458Z,0
2023-05-10T21:35:11.380Z,0
2023-05-10T21:37:10.974Z,0
2023-05-10T21:39:11.316Z,0
2023-05-10T21:41:11.199Z,0
2023-05-10T21:43:10.569Z,0
2023-05-10T21:45:11.190Z,0
2023-05-10T21:47:11.119Z,0
2023-05-10T21:49:11.545Z,0
2023-05-10T21:51:11.070Z,0
2023-05-10T21:53:10.536Z,0
2023-05-10T21:55:10.858Z,0
2023-05-10T21:57:11.482Z,0
2023-05-10T21:59:11.140Z,0
2023-05-10T22:01:11.783Z,0
2023-05-10T22:03:11.381Z,0
2023-05-10T22:05:11.001Z,0
2023-05-10T22:07:10.323Z,0
2023-05-10T22:09:11.228Z,0
2023-05-10T22:11:10.867Z,0
2023-05-10T22:13:11.246Z,0
2023-05-10T22:15:22.384Z,0
2023-05-10T22:17:11.468Z,0
2023-05-10T22:19:11.295Z,0
2023-05-10T22:21:11.329Z,0
2023-05-10T22:23:10.918Z,0
2023-05-10T22:25:11.201Z,0
2023-05-10T22:27:10.716Z,0
2023-05-10T22:29:10.418Z,0
2023-05-10T22:31:11.248Z,0
2023-05-10T22:33:10.633Z,0
2023-05-10T22:35:10.827Z,0
2023-05-10T22:37:10.633Z,0
2023-05-10T22:39:11.418Z,0
2023-05-10T22:41:11.032Z,0
2023-05-10T22:43:10.511Z,0
2023-05-10T22:45:10.776Z,0
2023-05-10T22:47:11.149Z,0
2023-05-10T22:49:11.403Z,0
2023-05-10T22:51:10.886Z,0
2023-05-10T22:53:10.419Z,0
2023-05-10T22:55:11.170Z,0
2023-05-10T22:57:10.747Z,0
2023-05-10T22:59:11.998Z,0
2023-05-10T23:01:14.960Z,0
2023-05-10T23:03:10.564Z,0
2023-05-10T23:05:11.845Z,0
2023-05-10T23:07:11.049Z,0
2023-05-10T23:09:11.389Z,0
2023-05-10T23:11:11.078Z,0
2023-05-10T23:13:10.702Z,0
2023-05-10T23:15:11.062Z,0
2023-05-10T23:17:11.216Z,0
2023-05-10T23:19:10.669Z,0
2023-05-10T23:21:11.200Z,0
2023-05-10T23:23:10.514Z,0
2023-05-10T23:25:11.159Z,0
2023-05-10T23:27:10.944Z,0
2023-05-10T23:29:10.459Z,0
2023-05-10T23:31:10.892Z,0
2023-05-10T23:33:10.947Z,0
2023-05-10T23:35:11.080Z,0
2023-05-10T23:37:10.831Z,0
2023-05-10T23:39:11.131Z,0
2023-05-10T23:41:11.135Z,0
2023-05-10T23:43:10.557Z,0
2023-05-10T23:45:11.259Z,0
2023-05-10T23:47:11.242Z,0
2023-05-10T23:49:10.476Z,0
2023-05-10T23:51:11.274Z,0
2023-05-10T23:53:10.511Z,0
2023-05-10T23:55:11.079Z,0
2023-05-10T23:57:10.679Z,0
2023-05-10T23:59:11.301Z,0
